sensor_id;sensor_type;location;lat;lon;timestamp;P1;durP1;ratioP1;P2;durP2;ratioP2
54438;SDS011;40347;53.848;27.498;2022-08-11T14:43:39;4.5;;;1.7;;
54438;SDS011;40347;53.848;27.498;2022-08-11T14:48:39;5.2;;;1.9;;
54438;SDS011;40347;53.848;27.498;2022-08-11T14:53:41;4.8;;;1.8;;
54438;SDS011;40347;53.848;27.498;2022-08-11T14:58:53;6.4;;;1.8;;
54438;SDS011;40347;53.848;27.498;2022-08-11T15:03:33;7.1;;;1.6;;
54438;SDS011;40347;53.848;27.498;2022-08-11T15:08:34;3.4;;;1.7;;
54438;SDS011;40347;53.848;27.498;2022-08-11T15:13:41;4.3;;;1.7;;
54438;SDS011;40347;53.848;27.498;2022-08-11T15:18:33;4.6;;;1.8;;
54438;SDS011;40347;53.848;27.498;2022-08-11T15:23:33;4;;;1.8;;
54438;SDS011;40347;53.848;27.498;2022-08-11T15:28:34;4.2;;;1.7;;
54438;SDS011;40347;53.848;27.498;2022-08-11T15:33:42;4.5;;;1.8;;
54438;SDS011;40347;53.848;27.498;2022-08-11T15:38:33;4.7;;;2.1;;
54438;SDS011;40347;53.848;27.498;2022-08-11T15:43:51;3.9;;;1.7;;
54438;SDS011;40347;53.848;27.498;2022-08-11T15:48:35;4.2;;;1.7;;
54438;SDS011;40347;53.848;27.498;2022-08-11T15:54:07;3.7;;;1.7;;
54438;SDS011;40347;53.848;27.498;2022-08-11T15:58:35;3.3;;;1.6;;
54438;SDS011;40347;53.848;27.498;2022-08-11T16:03:35;4.6;;;1.7;;
54438;SDS011;40347;53.848;27.498;2022-08-11T16:08:35;6.1;;;1.7;;
54438;SDS011;40347;53.848;27.498;2022-08-11T16:13:33;5.8;;;1.7;;
54438;SDS011;40347;53.848;27.498;2022-08-11T16:18:43;4.1;;;1.7;;
54438;SDS011;40347;53.848;27.498;2022-08-11T16:23:45;3.4;;;1.6;;
54438;SDS011;40347;53.848;27.498;2022-08-11T16:28:37;4.3;;;1.8;;
54438;SDS011;40347;53.848;27.498;2022-08-11T16:33:41;4.3;;;1.9;;
54438;SDS011;40347;53.848;27.498;2022-08-11T16:38:39;4.4;;;2;;
54438;SDS011;40347;53.848;27.498;2022-08-11T16:43:43;5.5;;;2.1;;
54438;SDS011;40347;53.848;27.498;2022-08-11T16:48:33;5;;;1.9;;
54438;SDS011;40347;53.848;27.498;2022-08-11T16:53:43;6.2;;;1.9;;
54438;SDS011;40347;53.848;27.498;2022-08-11T16:58:37;4.6;;;1.8;;
54438;SDS011;40347;53.848;27.498;2022-08-11T17:03:39;5.1;;;1.9;;
54438;SDS011;40347;53.848;27.498;2022-08-11T17:08:42;4.8;;;1.9;;
54438;SDS011;40347;53.848;27.498;2022-08-11T17:13:35;6.1;;;2;;
54438;SDS011;40347;53.848;27.498;2022-08-11T17:19:24;5.7;;;2;;
54438;SDS011;40347;53.848;27.498;2022-08-11T17:23:40;4.3;;;2;;
54438;SDS011;40347;53.848;27.498;2022-08-11T17:28:33;4.4;;;2;;
54438;SDS011;40347;53.848;27.498;2022-08-11T17:33:33;6.1;;;2.1;;
54438;SDS011;40347;53.848;27.498;2022-08-11T17:38:55;7;;;1.8;;
54438;SDS011;40347;53.848;27.498;2022-08-11T17:43:33;4.1;;;1.6;;
54438;SDS011;40347;53.848;27.498;2022-08-11T17:48:49;4.8;;;2.4;;
54438;SDS011;40347;53.848;27.498;2022-08-11T17:53:40;4.3;;;2.2;;
54438;SDS011;40347;53.848;27.498;2022-08-11T17:58:39;3.9;;;2.1;;
54438;SDS011;40347;53.848;27.498;2022-08-11T18:03:33;5.2;;;2;;
54438;SDS011;40347;53.848;27.498;2022-08-11T18:08:43;4.7;;;2;;
54438;SDS011;40347;53.848;27.498;2022-08-11T18:13:34;4.4;;;1.9;;
54438;SDS011;40347;53.848;27.498;2022-08-11T18:18:33;4.6;;;1.8;;
54438;SDS011;40347;53.848;27.498;2022-08-11T18:23:33;3.9;;;1.8;;
54438;SDS011;40347;53.848;27.498;2022-08-11T18:28:53;5.6;;;1.8;;
54438;SDS011;40347;53.848;27.498;2022-08-11T18:33:38;5.3;;;1.7;;
54438;SDS011;40347;53.848;27.498;2022-08-11T18:38:33;4;;;1.7;;
54438;SDS011;40347;53.848;27.498;2022-08-11T18:43:41;5.7;;;1.9;;
54438;SDS011;40347;53.848;27.498;2022-08-11T18:48:48;5.2;;;1.7;;
54438;SDS011;40347;53.848;27.498;2022-08-11T18:53:34;4.1;;;1.9;;
54438;SDS011;40347;53.848;27.498;2022-08-11T18:58:33;3.5;;;1.8;;
54438;SDS011;40347;53.848;27.498;2022-08-11T19:03:33;4.1;;;1.9;;
54438;SDS011;40347;53.848;27.498;2022-08-11T19:09:13;4.2;;;1.7;;
54438;SDS011;40347;53.848;27.498;2022-08-11T19:13:43;3.7;;;1.8;;
54438;SDS011;40347;53.848;27.498;2022-08-11T19:18:41;4.3;;;1.7;;
54438;SDS011;40347;53.848;27.498;2022-08-11T19:23:34;5.5;;;1.8;;
54438;SDS011;40347;53.848;27.498;2022-08-11T19:28:33;4.1;;;1.7;;
54438;SDS011;40347;53.848;27.498;2022-08-11T19:33:33;4.6;;;1.9;;
54438;SDS011;40347;53.848;27.498;2022-08-11T19:38:39;3.1;;;1.7;;
54438;SDS011;40347;53.848;27.498;2022-08-11T19:43:49;4.1;;;1.9;;
54438;SDS011;40347;53.848;27.498;2022-08-11T19:48:33;4.9;;;1.8;;
54438;SDS011;40347;53.848;27.498;2022-08-11T19:53:49;4.8;;;1.7;;
54438;SDS011;40347;53.848;27.498;2022-08-11T19:58:34;5.5;;;1.9;;
54438;SDS011;40347;53.848;27.498;2022-08-11T20:03:41;3.8;;;1.8;;
54438;SDS011;40347;53.848;27.498;2022-08-11T20:08:33;4.6;;;1.8;;
54438;SDS011;40347;53.848;27.498;2022-08-11T20:13:51;3.3;;;1.7;;
54438;SDS011;40347;53.848;27.498;2022-08-11T20:18:33;4.1;;;1.8;;
54438;SDS011;40347;53.848;27.498;2022-08-11T20:23:39;6;;;2;;
54438;SDS011;40347;53.848;27.498;2022-08-11T20:28:39;4.9;;;1.9;;
54438;SDS011;40347;53.848;27.498;2022-08-11T20:33:33;4.6;;;2;;
54438;SDS011;40347;53.848;27.498;2022-08-11T20:38:33;5.2;;;2.1;;
54438;SDS011;40347;53.848;27.498;2022-08-11T20:43:33;5.7;;;1.9;;
54438;SDS011;40347;53.848;27.498;2022-08-11T20:48:33;4.7;;;2.2;;
54438;SDS011;40347;53.848;27.498;2022-08-11T20:53:35;4.7;;;2;;
54438;SDS011;40347;53.848;27.498;2022-08-11T20:58:33;6.4;;;2.1;;
54438;SDS011;40347;53.848;27.498;2022-08-11T21:03:41;4.8;;;2.2;;
54438;SDS011;40347;53.848;27.498;2022-08-11T21:08:53;5.4;;;2.3;;
54438;SDS011;40347;53.848;27.498;2022-08-11T21:13:49;6;;;2.3;;
54438;SDS011;40347;53.848;27.498;2022-08-11T21:18:33;6;;;2.3;;
54438;SDS011;40347;53.848;27.498;2022-08-11T21:23:33;6.4;;;2.4;;
54438;SDS011;40347;53.848;27.498;2022-08-11T21:28:43;6.3;;;2.6;;
54438;SDS011;40347;53.848;27.498;2022-08-11T21:33:55;6.3;;;2.5;;
54438;SDS011;40347;53.848;27.498;2022-08-11T21:38:43;6.3;;;2.5;;
54438;SDS011;40347;53.848;27.498;2022-08-11T21:43:43;6.2;;;2.6;;
54438;SDS011;40347;53.848;27.498;2022-08-11T21:48:49;6;;;2.7;;
54438;SDS011;40347;53.848;27.498;2022-08-11T21:53:47;5.7;;;2.7;;
54438;SDS011;40347;53.848;27.498;2022-08-11T21:58:33;7.6;;;3.1;;
54438;SDS011;40347;53.848;27.498;2022-08-11T22:03:39;5.6;;;2.8;;
54438;SDS011;40347;53.848;27.498;2022-08-11T22:08:33;6.1;;;2.8;;
54438;SDS011;40347;53.848;27.498;2022-08-11T22:13:33;5.4;;;2.7;;
54438;SDS011;40347;53.848;27.498;2022-08-11T22:18:49;7.1;;;2.7;;
54438;SDS011;40347;53.848;27.498;2022-08-11T22:23:51;7.6;;;3;;
54438;SDS011;40347;53.848;27.498;2022-08-11T22:28:33;6.7;;;2.9;;
54438;SDS011;40347;53.848;27.498;2022-08-11T22:33:41;6.1;;;2.9;;
54438;SDS011;40347;53.848;27.498;2022-08-11T22:38:41;6.8;;;3.1;;
54438;SDS011;40347;53.848;27.498;2022-08-11T22:43:41;6.5;;;3;;
54438;SDS011;40347;53.848;27.498;2022-08-11T22:48:41;6.2;;;2.9;;
54438;SDS011;40347;53.848;27.498;2022-08-11T22:53:33;7;;;2.9;;
54438;SDS011;40347;53.848;27.498;2022-08-11T22:58:37;8;;;2.9;;
54438;SDS011;40347;53.848;27.498;2022-08-11T23:03:53;6.9;;;3.1;;
54438;SDS011;40347;53.848;27.498;2022-08-11T23:08:33;8;;;3.1;;
54438;SDS011;40347;53.848;27.498;2022-08-11T23:13:33;6.7;;;2.7;;
54438;SDS011;40347;53.848;27.498;2022-08-11T23:18:43;6.1;;;2.6;;
54438;SDS011;40347;53.848;27.498;2022-08-11T23:23:51;6.6;;;2.7;;
54438;SDS011;40347;53.848;27.498;2022-08-11T23:28:33;7.1;;;2.7;;
54438;SDS011;40347;53.848;27.498;2022-08-11T23:33:33;6.1;;;2.6;;
54438;SDS011;40347;53.848;27.498;2022-08-11T23:38:33;5.1;;;2.5;;
54438;SDS011;40347;53.848;27.498;2022-08-11T23:43:45;6.6;;;2.5;;
54438;SDS011;40347;53.848;27.498;2022-08-11T23:48:37;6.1;;;2.5;;
54438;SDS011;40347;53.848;27.498;2022-08-11T23:53:51;5;;;2.3;;
54438;SDS011;40347;53.848;27.498;2022-08-11T23:58:33;4.8;;;2.3;;
